Latest Weather Observations for Proserpine

IDQ60801

Issued at 2:02 pm EST Tuesday 28 March 2017 (issued every 30 minutes, with the page automatically refreshed every 10 minutes)

About weather observations | Map of weather stations | Latest weather observations for QLD | Other Formats
Station Details ID: 033247 Name: PROSERPINE AIRPORT Lat: -20.49 Lon: 148.56 Height: 19.7 m
Data from the previous 72 hours. | See also: Recent months at Proserpine
Date/Time
EST
Temp
°C
App
Temp
°C
Dew
Point
°C
Rel
Hum
%
Delta-T
°C
Wind Press
QNH
hPa
Press
MSL
hPa
Rain since
9am
mm
Dir  Spd
km/h
Gust
km/h
Spd
kts
Gust
kts
28/01:30pm 25.7 13.8 25.4 98 0.2 ESE 98 137 53 74 968.4 968.2 77.8
28/01:26pm 25.5 13.1 25.3 99 0.1 ESE 100 137 54 74 968.4 968.2 77.6
28/01:00pm 24.7 10.1 24.5 99 0.1 SE 109 165 59 89 969.2 969.0 76.2
28/12:42pm 24.6 8.8 24.4 99 0.1 SE 115 154 62 83 969.7 969.5 70.8
28/12:30pm 24.6 10.0 24.4 99 0.1 SE 109 159 59 86 971.0 970.8 67.2
28/12:26pm 24.7 10.5 24.5 99 0.1 SE 107 156 58 84 971.6 971.4 66.2
28/12:00pm 24.6 10.0 24.4 99 0.1 SSE 109 159 59 86 973.7 973.5 56.2
28/11:58am 24.6 10.0 24.4 99 0.1 SSE 109 159 59 86 973.8 973.6 55.2
28/11:30am 24.5 11.1 24.2 98 0.2 SSE 102 146 55 79 975.9 975.7 39.6
28/11:27am 24.5 11.5 24.2 98 0.2 SSE 100 146 54 79 976.3 976.1 37.6
28/11:17am 24.5 12.2 24.2 98 0.2 SSE 96 124 52 67 978.4 978.2 32.8
28/11:00am 24.8 13.7 24.5 98 0.2 SSE 91 133 49 72 980.4 980.2 25.6
28/10:58am 24.8 13.7 24.5 98 0.2 SSE 91 133 49 72 980.4 980.2 25.2
28/10:30am 24.7 13.1 24.4 98 0.2 SSE 93 139 50 75 982.4 982.3 20.2
28/10:00am 24.5 13.9 24.2 98 0.2 SSE 87 130 47 70 984.2 984.1 13.8
28/09:56am 24.5 13.4 24.0 97 0.3 SSE 89 122 48 66 983.7 983.6 12.8
28/09:30am 24.7 14.5 24.2 97 0.3 SSE 85 115 46 62 985.8 985.7 6.8
28/09:00am 24.7 14.9 24.2 97 0.3 SSE 83 120 45 65 986.6 986.5 138.0
28/08:30am 24.7 16.6 24.2 97 0.3 SSE 74 113 40 61 987.8 987.7 129.2
28/08:19am 24.6 16.1 24.1 97 0.3 SSE 76 113 41 61 988.4 988.3 126.2
28/08:17am 24.6 15.7 24.1 97 0.3 SSE 78 113 42 61 988.3 988.2 125.8
28/08:00am 24.7 16.9 24.0 96 0.5 SSE 72 104 39 56 989.1 989.0 119.8
28/07:30am 24.7 17.6 24.2 97 0.3 SSE 69 100 37 54 989.4 989.3 113.4
28/07:00am 25.1 17.8 24.2 95 0.6 SSE 70 113 38 61 990.0 989.9 103.2
28/06:59am 25.1 17.8 24.2 95 0.6 SSE 70 113 38 61 989.4 989.3 103.2
28/06:58am 25.1 18.3 24.2 95 0.6 SSE 67 113 36 61 989.9 989.8 103.0
28/06:48am 25.1 19.0 24.1 94 0.7 SSE 63 107 34 58 989.8 989.7 101.4
28/06:37am 25.4 19.8 24.2 93 0.8 SSE 61 102 33 55 990.0 989.9 100.2
28/06:30am 25.9 20.2 24.7 93 0.8 SSE 63 102 34 55 990.0 989.9 100.0
28/06:00am 25.7 19.9 24.5 93 0.8 SSE 63 91 34 49 990.6 990.5 98.8
28/05:30am 24.9 18.0 24.0 95 0.6 SSE 67 91 36 49 990.4 990.3 97.2
28/05:29am 25.1 18.7 24.2 95 0.6 SSE 65 91 35 49 990.5 990.4 97.0
28/05:27am 25.2 18.9 24.3 95 0.6 SSE 65 95 35 51 990.5 990.4 96.8
28/05:00am 24.6 20.4 23.7 95 0.6 SSE 52 80 28 43 990.6 990.5 93.4
28/04:30am 24.5 19.7 24.0 97 0.3 SSE 56 80 30 43 990.6 990.5 90.2
28/04:13am 24.4 19.4 23.9 97 0.3 SSE 57 83 31 45 990.0 989.9 87.6
28/04:00am 24.4 19.6 23.9 97 0.3 SSE 56 82 30 44 990.5 990.4 85.4
28/03:54am 24.4 19.9 23.9 97 0.3 SSE 54 76 29 41 990.6 990.5 83.6
28/03:30am 24.6 20.4 23.7 95 0.6 S 52 82 28 44 990.8 990.7 76.0
28/03:00am 24.9 21.2 23.9 94 0.7 S 50 78 27 42 991.4 991.3 70.0
28/02:54am 24.8 21.3 23.6 93 0.8 S 48 78 26 42 991.2 991.1 69.6
28/02:49am 25.1 21.4 23.9 93 0.8 S 50 76 27 41 991.6 991.5 69.0
28/02:30am 25.0 21.0 24.0 94 0.7 SSE 52 76 28 41 992.4 992.3 67.6
28/02:00am 25.1 22.3 24.1 94 0.7 S 46 65 25 35 993.0 992.9 64.6
28/01:59am 25.1 22.3 24.1 94 0.7 S 46 65 25 35 993.0 992.9 64.4
28/01:51am 24.9 22.3 23.9 94 0.7 S 44 65 24 35 993.3 993.2 63.6
28/01:47am 24.8 22.4 23.8 94 0.7 S 43 63 23 34 993.4 993.3 63.2
28/01:44am 24.9 22.5 23.9 94 0.7 S 43 59 23 32 993.3 993.2 62.8
28/01:43am 24.8 22.4 23.8 94 0.7 S 43 59 23 32 993.3 993.2 62.8
28/01:39am 24.7 22.2 23.7 94 0.7 S 43 59 23 32 993.6 993.5 62.2
28/01:30am 24.8 22.2 23.8 94 0.7 S 44 76 24 41 994.0 993.9 61.8
28/01:00am 24.5 21.4 23.6 95 0.6 S 46 69 25 37 995.1 995.0 58.2
28/12:52am 24.7 22.6 23.8 95 0.6 S 41 61 22 33 995.1 995.0 56.8
28/12:30am 25.0 22.4 23.8 93 0.8 S 44 65 24 35 995.9 995.8 53.4
28/12:24am 24.9 22.9 23.9 94 0.7 S 41 65 22 35 996.2 996.1 52.8
28/12:20am 24.9 23.7 23.9 94 0.7 S 37 56 20 30 996.4 996.3 52.4
28/12:14am 24.9 24.1 24.0 95 0.6 S 35 54 19 29 996.5 996.4 51.8
28/12:08am 24.7 23.0 23.8 95 0.6 S 39 54 21 29 996.6 996.5 51.6
28/12:00am 24.6 22.9 23.7 95 0.6 S 39 56 21 30 997.2 997.1 51.6
 
Date/Time
EST
Temp
°C
App
Temp
°C
Dew
Point
°C
Rel
Hum
%
Delta-T
°C
Wind Press
QNH
hPa
Press
MSL
hPa
Rain since
9am
mm
Dir  Spd
km/h
Gust
km/h
Spd
kts
Gust
kts
27/11:51pm 24.4 23.3 23.5 95 0.6 S 35 54 19 29 997.1 997.0 51.0
27/11:49pm 24.4 23.3 23.5 95 0.6 S 35 56 19 30 997.2 997.1 50.8
27/11:41pm 24.7 23.0 23.7 94 0.7 S 39 56 21 30 997.1 997.0 48.4
27/11:30pm 24.6 23.2 23.7 95 0.6 S 37 54 20 29 997.3 997.2 47.6
27/11:26pm 24.5 23.6 23.8 96 0.5 S 35 54 19 29 997.5 997.4 47.4
27/11:25pm 24.5 24.0 23.8 96 0.5 S 33 44 18 24 997.5 997.4 47.4
27/11:18pm 24.5 24.0 23.8 96 0.5 S 33 54 18 29 997.9 997.8 47.0
27/11:04pm 24.4 23.5 23.9 97 0.3 S 35 61 19 33 998.1 998.0 46.4
27/11:00pm 24.2 23.6 23.7 97 0.3 S 33 50 18 27 998.2 998.1 46.0
27/10:46pm 24.1 23.1 23.6 97 0.3 S 35 54 19 29 998.0 997.9 43.6
27/10:35pm 24.4 23.8 23.7 96 0.5 S 33 50 18 27 998.4 998.3 39.8
27/10:30pm 24.5 23.8 23.6 95 0.6 S 33 52 18 28 998.6 998.5 39.0
27/10:29pm 24.5 23.8 23.6 95 0.6 S 33 52 18 28 998.7 998.6 38.8
27/10:23pm 24.6 23.2 23.7 95 0.6 S 37 52 20 28 998.5 998.4 38.4
27/10:17pm 24.6 23.2 23.6 94 0.7 S 37 50 20 27 998.6 998.5 37.8
27/10:07pm 24.7 23.3 23.7 94 0.7 S 37 57 20 31 998.7 998.6 37.4
27/10:00pm 24.9 23.5 23.7 93 0.8 S 37 57 20 31 998.8 998.7 36.6
27/09:56pm 24.8 23.9 23.8 94 0.7 S 35 54 19 29 999.0 998.9 36.6
27/09:51pm 24.7 23.8 23.8 95 0.6 S 35 54 19 29 999.2 999.1 36.6
27/09:41pm 24.5 24.5 23.8 96 0.5 SSE 30 48 16 26 999.5 999.4 36.6
27/09:35pm 24.6 23.6 23.7 95 0.6 S 35 50 19 27 999.8 999.7 35.6
27/09:30pm 24.6 24.0 23.7 95 0.6 S 33 50 18 27 999.4 999.3 35.0
27/09:22pm 24.7 24.2 23.8 95 0.6 S 33 48 18 26 999.3 999.2 34.6
27/09:00pm 24.5 23.8 23.6 95 0.6 S 33 59 18 32 999.5 999.4 32.6
27/08:49pm 24.5 23.8 23.6 95 0.6 S 33 54 18 29 999.4 999.3 30.4
27/08:48pm 24.5 23.8 23.6 95 0.6 S 33 54 18 29 999.5 999.4 30.2
27/08:41pm 24.5 23.4 23.5 94 0.7 S 35 54 19 29 999.5 999.4 28.8
27/08:40pm 24.9 24.3 23.7 93 0.8 S 33 52 18 28 999.5 999.4 28.2
27/08:30pm 24.8 24.5 23.8 94 0.7 S 32 43 17 23 999.5 999.4 27.2
27/08:16pm 24.7 24.4 23.8 95 0.6 S 32 50 17 27 999.5 999.4 27.0
27/08:07pm 24.6 24.6 23.7 95 0.6 S 30 50 16 27 999.5 999.4 26.8
27/08:00pm 24.5 24.0 23.6 95 0.6 S 32 44 17 24 999.6 999.5 26.4
27/07:55pm 24.5 24.0 23.5 94 0.7 S 32 43 17 23 999.6 999.5 25.4
27/07:54pm 24.5 24.0 23.5 94 0.7 S 32 43 17 23 999.5 999.4 25.4
27/07:35pm 24.7 24.0 23.5 93 0.8 S 33 59 18 32 999.5 999.4 24.2
27/07:30pm 24.6 23.8 23.4 93 0.8 S 33 59 18 32 999.5 999.4 24.2
27/07:19pm 24.4 23.3 23.4 94 0.7 S 35 57 19 31 999.4 999.3 24.0
27/07:10pm 24.5 23.4 22.9 91 1.1 S 33 43 18 23 999.2 999.1 22.2
27/07:00pm 25.1 24.2 23.2 89 1.3 S 33 52 18 28 999.1 999.0 20.8
27/06:58pm 25.1 24.2 23.2 89 1.3 S 33 52 18 28 999.1 999.0 20.8
27/06:30pm 24.4 23.6 23.0 92 0.9 S 32 41 17 22 999.4 999.3 20.8
27/06:17pm 24.5 23.6 22.9 91 1.1 S 32 52 17 28 999.6 999.5 20.2
27/06:00pm 24.6 23.1 22.8 90 1.2 S 35 50 19 27 999.5 999.4 20.0
27/05:40pm 25.1 23.5 23.2 89 1.3 S 37 56 20 30 999.3 999.2 19.6
27/05:30pm 24.6 22.5 23.0 91 1.1 S 39 61 21 33 999.3 999.2 19.6
27/05:23pm 24.8 23.2 23.2 91 1.1 S 37 57 20 31 999.2 999.1 19.4
27/05:22pm 24.8 23.2 23.2 91 1.1 S 37 50 20 27 999.3 999.2 19.4
27/05:00pm 25.3 23.2 23.0 87 1.6 S 39 59 21 32 999.2 999.1 18.0
27/04:30pm 25.9 25.4 23.6 87 1.6 S 32 50 17 27 999.2 999.1 17.6
27/04:00pm 25.9 25.2 23.6 87 1.6 S 33 54 18 29 999.6 999.5 17.6
27/03:34pm 25.2 25.2 23.8 92 1.0 S 30 48 16 26 999.6 999.5 17.6
27/03:30pm 25.4 25.5 24.0 92 1.0 S 30 46 16 25 999.8 999.7 17.6
27/03:01pm 25.2 24.4 24.0 93 0.8 S 35 54 19 29 999.8 999.7 17.6
27/03:00pm 25.2 24.8 24.0 93 0.8 S 33 48 18 26 999.8 999.7 17.6
27/02:42pm 24.8 24.5 23.8 94 0.7 S 32 50 17 27 999.8 999.7 17.6
27/02:40pm 24.7 24.7 23.7 94 0.7 S 30 50 16 27 999.8 999.7 17.6
27/02:30pm 24.6 24.5 23.6 94 0.7 S 30 46 16 25 1000.0 999.9 17.6
27/02:24pm 24.5 24.0 23.5 94 0.7 S 32 46 17 25 1000.3 1000.2 16.8
27/02:00pm 24.4 22.9 23.5 95 0.6 S 37 61 20 33 1000.8 1000.7 15.4
27/01:59pm 24.4 23.3 23.5 95 0.6 S 35 61 19 33 1000.8 1000.7 15.4
27/01:57pm 24.4 23.3 23.5 95 0.6 S 35 52 19 28 1000.8 1000.7 15.4
27/01:51pm 24.1 23.5 23.4 96 0.5 S 32 50 17 27 1000.8 1000.7 15.2
27/01:30pm 23.7 22.8 23.2 97 0.3 SSE 33 54 18 29 1001.6 1001.5 13.6
27/01:20pm 23.9 22.3 23.2 96 0.5 SSE 37 56 20 30 1001.8 1001.7 9.4
27/01:16pm 23.9 21.4 23.0 95 0.6 SSE 41 56 22 30 1001.8 1001.7 8.2
27/01:11pm 23.9 20.9 22.9 94 0.7 SE 43 57 23 31 1001.7 1001.6 7.2
27/01:05pm 24.3 22.8 22.7 91 1.1 SE 35 57 19 31 1001.9 1001.8 5.2
27/01:01pm 25.4 24.9 23.5 89 1.3 SE 32 54 17 29 1002.1 1002.0 3.4
27/01:00pm 26.0 25.6 23.7 87 1.6 SSE 32 48 17 26 1002.0 1001.9 2.4
27/12:32pm 28.3 27.7 23.4 75 3.4 SSE 32 56 17 30 1001.1 1001.0 1.2
27/12:30pm 28.3 28.0 23.2 74 3.5 SSE 30 44 16 24 1001.2 1001.1 1.2
27/12:09pm 28.0 26.9 23.4 76 3.2 S 35 54 19 29 1001.6 1001.5 1.2
27/12:00pm 27.8 26.4 23.6 78 2.9 SSE 37 52 20 28 1001.8 1001.7 1.2
27/11:48am 28.1 27.9 24.1 79 2.8 S 32 50 17 27 1002.1 1002.0 1.2
27/11:30am 26.9 26.6 23.8 83 2.1 S 32 46 17 25 1002.6 1002.5 1.2
27/11:00am 26.1 26.8 24.3 90 1.2 S 28 43 15 23 1003.5 1003.4 1.2
27/10:47am 25.8 26.3 24.0 90 1.2 S 28 46 15 25 1003.9 1003.8 1.2
27/10:42am 26.0 27.7 24.6 92 1.0 SSE 24 37 13 20 1003.9 1003.8 1.2
27/10:30am 25.5 25.3 24.1 92 1.0 SSE 32 48 17 26 1003.8 1003.7 1.2
27/10:25am 25.5 25.6 23.9 91 1.1 SSE 30 48 16 26 1003.9 1003.8 1.2
27/10:04am 25.9 25.8 23.6 87 1.6 SSE 30 48 16 26 1004.0 1003.9 0.0
27/10:00am 26.1 25.6 23.6 86 1.7 SSE 32 48 17 26 1004.0 1003.9 0.0
27/09:30am 26.6 25.9 23.5 83 2.1 S 33 48 18 26 1004.3 1004.2 0.0
27/09:00am 26.6 27.2 23.5 83 2.1 SSE 26 39 14 21 1004.7 1004.6 6.2
27/08:30am 27.1 27.4 23.6 81 2.4 SSE 28 46 15 25 1004.5 1004.4 6.2
27/08:25am 27.1 27.4 23.6 81 2.4 SSE 28 46 15 25 1004.5 1004.4 6.2
27/08:00am 26.7 26.2 23.6 83 2.1 S 32 46 17 25 1004.2 1004.1 6.2
27/07:30am 26.0 26.6 23.5 86 1.7 S 26 35 14 19 1004.1 1004.0 6.2
27/07:13am 25.7 25.9 23.4 87 1.6 S 28 48 15 26 1004.1 1004.0 6.2
27/07:00am 25.3 25.5 23.4 89 1.3 S 28 41 15 22 1004.3 1004.2 6.2
27/06:30am 25.1 25.2 23.3 90 1.2 S 28 39 15 21 1003.8 1003.7 6.2
27/06:00am 24.7 25.3 23.5 93 0.8 S 26 35 14 19 1004.0 1003.9 6.2
27/05:30am 24.4 25.0 23.5 95 0.6 S 26 41 14 22 1003.7 1003.6 6.2
27/05:25am 24.3 24.9 23.4 95 0.6 S 26 39 14 21 1003.7 1003.6 6.2
27/05:13am 24.1 24.9 23.2 95 0.6 SSE 24 33 13 18 1004.0 1003.9 5.8
27/05:08am 24.0 24.8 23.1 95 0.6 SSE 24 33 13 18 1003.9 1003.8 5.8
27/05:00am 24.1 24.5 23.2 95 0.6 SSE 26 39 14 21 1003.8 1003.7 5.2
27/04:52am 24.1 24.1 23.1 94 0.7 SE 28 39 15 21 1003.8 1003.7 5.2
27/04:41am 24.6 24.6 23.0 91 1.1 SE 28 43 15 23 1004.4 1004.3 2.8
27/04:30am 26.0 25.1 22.9 83 2.1 SSE 32 46 17 25 1003.4 1003.3 2.0
27/04:19am 26.0 25.5 22.9 83 2.1 S 30 57 16 31 1003.0 1002.9 2.0
27/04:00am 25.3 26.4 23.0 87 1.6 S 22 35 12 19 1002.9 1002.8 2.0
27/03:30am 24.2 26.2 23.0 93 0.8 SSE 17 24 9 13 1003.3 1003.2 2.0
27/03:00am 24.3 25.1 23.1 93 0.8 SSE 24 37 13 20 1003.7 1003.6 2.0
27/02:39am 24.9 24.9 23.0 89 1.3 SSE 28 46 15 25 1003.8 1003.7 1.4
27/02:30am 25.0 24.1 22.9 88 1.4 SSE 32 43 17 23 1004.0 1003.9 1.2
27/02:00am 25.4 25.2 22.7 85 1.8 SSE 28 43 15 23 1004.1 1004.0 1.2
27/01:30am 24.5 25.2 22.9 91 1.1 S 24 35 13 19 1004.6 1004.5 1.2
27/01:02am 24.9 24.9 23.0 89 1.3 SSE 28 46 15 25 1005.5 1005.4 0.8
27/01:00am 25.0 25.4 23.1 89 1.3 SSE 26 39 14 21 1005.6 1005.5 0.8
27/12:30am 25.2 24.9 22.5 85 1.8 SSE 28 43 15 23 1005.9 1005.8 0.6
27/12:16am 25.6 24.9 22.5 83 2.1 SSE 30 50 16 27 1005.7 1005.6 0.6
27/12:00am 25.3 25.4 22.6 85 1.8 SSE 26 46 14 25 1006.1 1006.0 0.6
 
Date/Time
EST
Temp
°C
App
Temp
°C
Dew
Point
°C
Rel
Hum
%
Delta-T
°C
Wind Press
QNH
hPa
Press
MSL
hPa
Rain since
9am
mm
Dir  Spd
km/h
Gust
km/h
Spd
kts
Gust
kts
26/11:43pm 25.4 25.1 22.5 84 2.0 SSE 28 50 15 27 1006.3 1006.2 0.6
26/11:30pm 25.4 25.6 22.7 85 1.8 SSE 26 43 14 23 1006.4 1006.3 0.6
26/11:00pm 24.9 25.4 22.6 87 1.6 SSE 24 32 13 17 1006.7 1006.6 0.6
26/10:30pm 24.8 24.9 22.5 87 1.5 S 26 37 14 20 1007.1 1007.0 0.6
26/10:11pm 24.9 24.5 22.4 86 1.7 S 28 48 15 26 1007.2 1007.1 0.6
26/10:00pm 24.9 25.0 22.6 87 1.6 SSE 26 39 14 21 1007.3 1007.2 0.6
26/09:30pm 24.9 26.5 22.8 88 1.4 SSE 19 28 10 15 1007.4 1007.3 0.6
26/09:00pm 24.6 26.6 23.0 91 1.1 SSE 17 26 9 14 1007.4 1007.3 0.6
26/08:30pm 24.5 26.6 23.1 92 0.9 SSE 17 24 9 13 1007.3 1007.2 0.6
26/08:00pm 24.5 26.6 23.1 92 0.9 SSE 17 24 9 13 1007.0 1006.9 0.6
26/07:30pm 24.5 26.2 23.1 92 0.9 S 19 28 10 15 1007.0 1006.9 0.6
26/07:00pm 24.5 26.4 23.5 94 0.7 S 19 28 10 15 1006.6 1006.5 0.6
26/06:46pm 24.4 26.7 23.5 95 0.6 SSE 17 26 9 14 1006.6 1006.5 0.6
26/06:30pm 24.4 26.2 23.5 95 0.6 SSE 20 26 11 14 1006.6 1006.5 0.6
26/06:25pm 24.4 26.2 23.5 95 0.6 SSE 20 26 11 14 1006.4 1006.3 0.4
26/06:20pm 24.5 26.5 23.6 95 0.6 SSE 19 26 10 14 1006.5 1006.4 0.4
26/06:00pm 24.6 25.4 23.2 92 1.0 SE 24 33 13 18 1006.3 1006.2 0.0
26/05:52pm 25.1 25.2 23.3 90 1.2 SE 28 35 15 19 1006.1 1006.0 0.0
26/05:30pm 26.4 27.5 23.1 82 2.2 SSE 22 32 12 17 1005.6 1005.5 0.0
26/05:00pm 26.8 27.9 23.1 80 2.5 SSE 22 32 12 17 1005.3 1005.2 0.0
26/04:30pm 26.3 28.1 23.6 85 1.8 S 20 35 11 19 1004.7 1004.6 0.0
26/04:00pm 25.9 26.6 23.6 87 1.6 SE 26 39 14 21 1005.1 1005.0 0.0
26/03:30pm 27.5 27.9 23.1 77 3.0 SSE 26 35 14 19 1004.9 1004.8 0.0
26/03:00pm 27.3 26.2 22.5 75 3.3 SSE 32 46 17 25 1005.0 1004.9 0.0
26/02:41pm 29.2 28.6 21.9 64 4.9 SSE 28 54 15 29 1004.8 1004.7 0.0
26/02:30pm 29.4 30.1 22.9 68 4.4 SE 24 32 13 17 1005.0 1004.9 0.0
26/02:00pm 28.4 27.9 22.2 69 4.2 SSE 28 43 15 23 1005.3 1005.2 0.0
26/01:40pm 29.7 28.7 21.9 63 5.3 SSE 30 48 16 26 1005.4 1005.3 0.0
26/01:30pm 30.3 29.3 22.7 64 5.2 SSE 32 43 17 23 1005.7 1005.6 0.0
26/01:00pm 30.0 28.7 22.4 63 5.2 S 33 50 18 27 1005.9 1005.8 0.0
26/12:42pm 30.3 30.3 23.7 68 4.6 SSE 30 48 16 26 1006.2 1006.1 0.0
26/12:30pm 29.5 28.5 22.7 67 4.6 SSE 32 44 17 24 1006.4 1006.3 0.0
26/12:00pm 29.4 28.6 22.4 66 4.8 SSE 30 44 16 24 1007.1 1007.0 0.0
26/11:37am 29.6 28.3 22.1 64 5.1 SSE 32 50 17 27 1007.3 1007.2 0.0
26/11:30am 29.8 28.8 23.0 67 4.7 SSE 33 48 18 26 1007.5 1007.4 0.0
26/11:00am 29.0 27.2 22.2 66 4.6 SSE 35 46 19 25 1007.8 1007.7 0.0
26/10:30am 28.5 28.7 22.0 68 4.4 SSE 24 37 13 20 1008.0 1007.9 0.0
26/10:04am 28.4 27.3 21.7 67 4.5 SSE 30 50 16 27 1008.1 1008.0 0.0
26/10:00am 28.5 27.0 21.8 67 4.5 SSE 32 43 17 23 1008.2 1008.1 0.0
26/09:50am 28.8 26.7 21.6 65 4.8 SSE 35 54 19 29 1008.2 1008.1 0.0
26/09:30am 28.8 27.0 22.3 68 4.4 SSE 35 48 19 26 1008.3 1008.2 0.0
26/09:00am 27.7 26.1 21.5 69 4.1 SSE 32 52 17 28 1008.5 1008.4 0.0
26/08:58am 27.7 26.7 21.3 68 4.3 SSE 28 48 15 26 1008.5 1008.4 0.0
26/08:30am 27.6 27.0 21.2 68 4.3 SSE 26 44 14 24 1008.7 1008.6 0.0
26/08:00am 26.7 27.1 21.0 71 3.8 SSE 20 35 11 19 1008.6 1008.5 0.0
26/07:30am 25.8 26.3 20.8 74 3.3 SSE 19 28 10 15 1008.2 1008.1 0.0
26/07:00am 25.3 25.6 20.5 75 3.1 SSE 19 26 10 14 1007.9 1007.8 0.0
26/06:30am 25.3 25.5 20.1 73 3.4 S 19 26 10 14 1007.7 1007.6 0.0
26/06:00am 25.6 24.3 19.9 70 3.7 SSE 26 39 14 21 1007.5 1007.4 0.0
26/05:30am 25.8 25.0 20.1 71 3.7 SSE 24 37 13 20 1007.4 1007.3 0.0
26/05:00am 26.2 25.1 20.3 70 3.9 S 26 39 14 21 1007.2 1007.1 0.0
26/04:30am 26.0 25.4 20.6 72 3.5 SSE 24 33 13 18 1007.2 1007.1 0.0
26/04:00am 26.1 25.2 20.7 72 3.6 SSE 26 43 14 23 1007.0 1006.9 0.0
26/03:30am 25.9 24.5 20.5 72 3.5 SSE 28 37 15 20 1006.8 1006.7 0.0
26/03:00am 25.5 24.8 20.3 73 3.4 SSE 24 35 13 19 1007.0 1006.9 0.0
26/02:30am 25.4 24.2 20.0 72 3.5 SSE 26 39 14 21 1007.3 1007.2 0.0
26/02:00am 25.6 24.2 20.4 73 3.4 SSE 28 35 15 19 1007.4 1007.3 0.0
26/01:30am 25.0 24.9 20.7 77 2.8 SSE 22 30 12 16 1007.6 1007.5 0.0
26/01:00am 25.0 25.0 20.9 78 2.7 SSE 22 30 12 16 1007.9 1007.8 0.0
26/12:30am 24.7 25.3 21.0 80 2.4 SSE 19 26 10 14 1008.6 1008.5 0.0
26/12:00am 24.8 25.2 20.7 78 2.7 SSE 19 26 10 14 1009.2 1009.1 0.0
 
Date/Time
EST
Temp
°C
App
Temp
°C
Dew
Point
°C
Rel
Hum
%
Delta-T
°C
Wind Press
QNH
hPa
Press
MSL
hPa
Rain since
9am
mm
Dir  Spd
km/h
Gust
km/h
Spd
kts
Gust
kts
25/11:30pm 24.8 25.3 20.9 79 2.6 SSE 19 24 10 13 1009.7 1009.6 0.0
25/11:00pm 24.5 25.9 21.0 81 2.3 S 15 20 8 11 1010.2 1010.1 0.0
25/10:30pm 24.6 25.9 20.9 80 2.4 S 15 20 8 11 1010.4 1010.3 0.0
25/10:00pm 24.8 26.5 20.9 79 2.6 S 13 20 7 11 1010.6 1010.5 0.0
25/09:30pm 24.7 26.2 20.6 78 2.7 S 13 17 7 9 1010.6 1010.5 0.0
25/09:00pm 25.2 26.9 20.9 77 2.8 S 13 17 7 9 1010.4 1010.3 0.0
25/08:30pm 25.4 27.2 21.1 77 2.8 SSE 13 19 7 10 1010.1 1010.0 0.0
25/08:00pm 26.0 27.8 21.2 75 3.2 S 13 19 7 10 1009.8 1009.7 0.0
25/07:30pm 26.6 27.6 21.1 72 3.6 SSE 17 22 9 12 1009.6 1009.5 0.0
25/07:00pm 26.9 28.0 21.2 71 3.8 SSE 17 22 9 12 1009.3 1009.2 0.0
25/06:30pm 27.2 27.9 20.5 67 4.4 SSE 17 22 9 12 1008.9 1008.8 0.0
25/06:00pm 28.2 27.8 20.2 62 5.3 SE 22 30 12 16 1008.6 1008.5 0.0
25/05:30pm 28.7 27.8 19.9 59 5.8 SE 24 33 13 18 1008.4 1008.3 0.0
25/05:00pm 29.3 27.4 19.3 55 6.5 SE 28 41 15 22 1008.0 1007.9 0.0
25/04:30pm 29.9 28.0 19.3 53 6.9 SE 28 37 15 20 1008.0 1007.9 0.0
25/04:00pm 30.3 29.5 21.7 60 5.8 SE 28 39 15 21 1007.7 1007.6 0.0
25/03:31pm 30.5 29.3 22.7 63 5.3 SE 33 52 18 28 1007.5 1007.4 0.0
25/03:30pm 30.2 28.3 22.1 62 5.5 SE 35 52 19 28 1007.5 1007.4 0.0
25/03:24pm 30.2 28.7 22.1 62 5.5 SE 33 52 18 28 1007.6 1007.5 0.0
25/03:00pm 30.5 28.4 22.4 62 5.5 SE 37 50 20 27 1007.7 1007.6 0.0
25/02:30pm 29.3 28.1 22.3 66 4.7 SE 32 44 17 24 1007.6 1007.5 0.0
25/02:03pm 29.4 27.3 22.4 66 4.8 SE 37 57 20 31 1008.0 1007.9 0.0

Other Formats:

Comma delimited format used in spreadsheet applications
http://www.bom.gov.au/fwo/IDQ60801/IDQ60801.94365.axf

JavaScript Object Notation format (JSON) in row-major order
http://www.bom.gov.au/fwo/IDQ60801/IDQ60801.94365.json